Hlavní strana
METAR-TAF:

METAR-TAF

Letiště :

Gurayat, Saúdská Arábie

zeměpisná šířka: 31-24N, zeměpisná délka: 037-16E, výška: 509 m

Aktuální stav počasí

Zpráva byla vytvořena před 1 hodinou a 5 minutami, v 04:00 UTC
Západoseverozápadní vítr 10 kt
Teplota 13°C
Vlhkost vzduchu 67%
Tlak 1015 hPa
Viditelnost 10 km a více
Oblačno až skoro zataženo ve výšce 4000 ft

METAR: OEGT 070400Z 30010KT 9999 BKN040 13/07 Q1015 NOSIG

Čas: 08:05 (05:05 UTC)

Předpověď počasí

Zpráva byla vytvořena před 18 hodinami a 5 minutami, v 11:00 UTC
Předpověď platná od 06 v 12 UTC do 07 v 18 UTC
Západoseverozápadní vítr 10 kt s nárazy do 20 kt
Viditelnost: 6000 m
Polojasno ve výšce 4000 ft
Polojasno ve výšce 10000 ft
Dočasný
od 06 v 12 UTC do 06 v 18 UTC
Viditelnost: 3500 m
rozsáhlý prach, zvířený prach
Změna
od 06 v 18 UTC do 06 v 20 UTC
Západní vítr 13 kt

TAF: OEGT 061100Z 0612/0718 30010G20KT 6000 SCT040 SCT100 TEMPO 0612/0618 3500 DU BLDU BECMG 0618/0620 28013KT

Stav a předpovědi počasí z více než 4 000 letišť (zprávy METAR a TAF).

Červené a žluté tečky na mapě představují dostupné meteorologické stanice.

Když kurzor umístíte na tečku, zobrazí se název stanice.

Pak kliknutím zobrazíte stav a předpověď počasí.

Chcete-li změnit mapu, kliknutím na zelené tlačítko se znaménkem +mapu přiblížíte, kliknutím na zelené tlačítko se znaménkem – mapu oddálíte a kliknutím na zelené šipky přejdete na sousední mapy.


METAR-TAF: